Time;durP1;ratioP1;P1;durP2;ratioP2;P2;SDS_P1;SDS_P2;PMS_P1;PMS_P2;Temp;Humidity;BMP_temperature;BMP_pressure;BME280_temperature;BME280_humidity;BME280_pressure;Samples;Min_cycle;Max_cycle;Signal;HPM_P1;HPM_P2
2022/10/06 00:01:39;;;;;;;4.83;1.67;;;14.00;99.90;;;;;;5117827;27;20227;-87
2022/10/06 00:04:06;;;;;;;5.77;2.07;;;13.90;99.90;;;;;;5117784;28;20209;-87
2022/10/06 00:06:33;;;;;;;9.63;2.33;;;13.90;99.90;;;;;;5116842;28;20452;-86
2022/10/06 00:09:01;;;;;;;6.77;1.80;;;14.00;99.90;;;;;;5117738;28;20200;-87
2022/10/06 00:11:30;;;;;;;9.10;1.57;;;14.00;99.90;;;;;;5117936;28;20193;-87
2022/10/06 00:13:57;;;;;;;10.63;2.20;;;13.90;99.90;;;;;;5117623;28;20207;-87
2022/10/06 00:16:24;;;;;;;6.67;1.40;;;13.90;99.90;;;;;;5117788;28;20206;-87
2022/10/06 00:18:52;;;;;;;8.77;2.07;;;13.90;99.90;;;;;;5117444;28;20207;-87
2022/10/06 00:21:22;;;;;;;6.47;1.63;;;13.80;99.90;;;;;;5117123;28;20219;-87
2022/10/06 00:23:50;;;;;;;7.97;1.73;;;13.70;99.90;;;;;;5117795;28;20215;-87
2022/10/06 00:26:19;;;;;;;8.83;1.80;;;13.80;99.90;;;;;;5117505;28;20648;-87
2022/10/06 00:28:52;;;;;;;8.17;1.77;;;13.70;99.90;;;;;;5117343;28;20209;-87
2022/10/06 00:31:21;;;;;;;9.70;2.20;;;13.70;99.90;;;;;;5117361;28;20207;-87
2022/10/06 00:33:51;;;;;;;10.60;2.37;;;13.60;99.90;;;;;;5116773;28;20648;-87
2022/10/06 00:36:19;;;;;;;10.53;2.43;;;13.50;99.90;;;;;;5117284;28;20200;-86
2022/10/06 00:38:48;;;;;;;10.80;2.50;;;13.50;99.90;;;;;;5117032;28;20254;-88
2022/10/06 00:41:17;;;;;;;11.80;1.93;;;13.50;99.90;;;;;;5116841;28;20574;-86
2022/10/06 00:43:49;;;;;;;9.20;1.80;;;13.40;99.90;;;;;;5117189;28;20214;-86
2022/10/06 00:46:23;;;;;;;7.07;1.97;;;13.40;99.90;;;;;;5116851;28;20232;-87
2022/10/06 00:48:56;;;;;;;8.63;1.60;;;13.40;99.90;;;;;;5116814;28;20565;-87
2022/10/06 00:51:23;;;;;;;9.80;2.03;;;13.30;99.90;;;;;;5116974;28;20212;-87
2022/10/06 00:53:50;;;;;;;9.73;2.30;;;13.30;99.90;;;;;;5116531;28;20200;-87
2022/10/06 00:56:18;;;;;;;12.03;2.00;;;13.20;99.90;;;;;;5116901;28;20200;-87
2022/10/06 00:58:48;;;;;;;9.93;2.23;;;13.20;99.90;;;;;;5115254;28;20222;-87
2022/10/06 01:01:18;;;;;;;7.30;2.43;;;13.20;99.90;;;;;;5116574;28;20246;-87
2022/10/06 01:03:50;;;;;;;10.53;2.43;;;13.20;99.90;;;;;;5116127;28;20568;-88
2022/10/06 01:06:20;;;;;;;11.67;2.03;;;13.10;99.90;;;;;;5116746;28;20196;-87
2022/10/06 01:08:51;;;;;;;10.13;2.20;;;13.30;99.90;;;;;;5116030;28;20218;-87
2022/10/06 01:11:24;;;;;;;7.50;2.00;;;13.10;99.90;;;;;;5116784;28;20598;-87
2022/10/06 01:13:54;;;;;;;12.37;2.30;;;13.10;99.90;;;;;;5116918;28;20204;-87
2022/10/06 01:16:26;;;;;;;11.77;2.37;;;13.00;99.90;;;;;;5116861;28;20227;-87
2022/10/06 01:18:55;;;;;;;15.55;3.17;;;12.90;99.90;;;;;;5115484;28;20791;-86
2022/10/06 01:21:35;;;;;;;11.43;2.47;;;12.90;99.90;;;;;;5116094;28;20227;-86
2022/10/06 01:24:05;;;;;;;11.07;2.70;;;12.90;99.90;;;;;;5116389;28;20195;-87
2022/10/06 01:26:35;;;;;;;13.50;2.50;;;12.90;99.90;;;;;;5115889;28;20530;-87
2022/10/06 01:29:02;;;;;;;10.93;3.17;;;12.90;99.90;;;;;;5116150;28;20211;-87
2022/10/06 01:31:33;;;;;;;13.03;2.80;;;12.90;99.90;;;;;;5116011;28;20246;-87
2022/10/06 01:34:05;;;;;;;10.20;2.30;;;12.90;99.90;;;;;;5116032;28;20192;-87
2022/10/06 01:36:32;;;;;;;8.03;1.90;;;12.90;99.90;;;;;;5115938;28;20643;-87
2022/10/06 01:39:00;;;;;;;11.73;2.30;;;12.80;99.90;;;;;;5115573;28;20215;-87
2022/10/06 01:41:32;;;;;;;9.90;2.23;;;12.80;99.90;;;;;;5115397;28;20232;-87
2022/10/06 01:43:59;;;;;;;16.23;3.55;;;12.80;99.90;;;;;;5114947;28;20421;-87
2022/10/06 01:46:28;;;;;;;11.10;2.40;;;12.80;99.90;;;;;;5115684;28;20203;-86
2022/10/06 01:48:56;;;;;;;14.27;2.43;;;12.80;99.90;;;;;;5116186;28;20204;-85
2022/10/06 01:51:29;;;;;;;15.97;2.57;;;12.80;99.90;;;;;;5116040;28;20665;-87
2022/10/06 01:53:57;;;;;;;14.27;2.47;;;12.80;99.90;;;;;;5115617;28;20641;-86
2022/10/06 01:56:24;;;;;;;12.13;2.53;;;12.80;99.90;;;;;;5115602;28;20666;-85
2022/10/06 01:58:53;;;;;;;7.03;2.00;;;12.80;99.90;;;;;;5115384;28;20196;-85
2022/10/06 02:01:21;;;;;;;12.03;2.40;;;12.70;99.90;;;;;;5115248;28;20211;-86
2022/10/06 02:03:48;;;;;;;11.47;2.20;;;12.70;99.90;;;;;;5115528;28;20195;-86
2022/10/06 02:06:17;;;;;;;15.33;2.67;;;12.70;99.90;;;;;;5115685;28;20211;-86
2022/10/06 02:08:45;;;;;;;8.60;2.53;;;12.70;99.90;;;;;;5115194;28;20188;-87
2022/10/06 02:11:14;;;;;;;12.67;2.97;;;12.70;99.90;;;;;;5115604;28;20195;-87
2022/10/06 02:13:43;;;;;;;9.47;2.80;;;12.60;99.90;;;;;;5116120;28;20191;-87
2022/10/06 02:16:12;;;;;;;11.27;2.23;;;12.50;99.90;;;;;;5114779;28;20216;-87
2022/10/06 02:18:43;;;;;;;13.13;2.83;;;12.50;99.90;;;;;;5115829;28;20209;-87
2022/10/06 02:21:15;;;;;;;12.60;3.27;;;12.50;99.90;;;;;;5116841;28;20235;-87
2022/10/06 02:23:42;;;;;;;15.90;2.43;;;12.50;99.90;;;;;;5115644;27;20260;-87
2022/10/06 02:26:09;;;;;;;14.23;3.10;;;12.60;99.90;;;;;;5114957;28;20207;-87
2022/10/06 02:28:36;;;;;;;14.63;2.53;;;12.50;99.90;;;;;;5114705;28;20642;-86
2022/10/06 02:31:04;;;;;;;12.20;2.90;;;12.50;99.90;;;;;;5114691;28;20199;-86
2022/10/06 02:33:32;;;;;;;11.73;2.40;;;12.50;99.90;;;;;;5114990;28;20209;-87
2022/10/06 02:36:06;;;;;;;14.47;2.43;;;12.50;99.90;;;;;;5114756;28;20562;-87
2022/10/06 02:38:34;;;;;;;15.07;2.47;;;12.40;99.90;;;;;;5114455;28;20218;-87
2022/10/06 02:41:04;;;;;;;12.97;2.93;;;12.40;99.90;;;;;;5114711;28;20227;-87
2022/10/06 02:43:33;;;;;;;12.20;2.67;;;12.30;99.90;;;;;;5114645;28;20572;-87
2022/10/06 02:46:02;;;;;;;9.40;2.40;;;12.30;99.90;;;;;;5114322;28;20218;-86
2022/10/06 02:48:32;;;;;;;13.40;2.50;;;12.20;99.90;;;;;;5114702;28;20671;-87
2022/10/06 02:51:03;;;;;;;15.83;3.47;;;12.30;99.90;;;;;;5114414;28;20211;-87
2022/10/06 02:53:36;;;;;;;13.20;2.33;;;12.30;99.90;;;;;;5114579;28;20207;-87
2022/10/06 02:56:05;;;;;;;16.73;3.15;;;12.40;99.90;;;;;;5114633;28;20437;-89
2022/10/06 02:58:33;;;;;;;11.43;3.27;;;12.30;99.90;;;;;;5113702;27;20207;-88
2022/10/06 03:01:07;;;;;;;21.13;2.67;;;12.20;99.90;;;;;;5112426;28;20235;-87
2022/10/06 03:03:36;;;;;;;14.73;2.60;;;12.20;99.90;;;;;;5113508;28;20694;-87
2022/10/06 03:06:04;;;;;;;17.03;2.63;;;12.20;99.90;;;;;;5113852;28;20202;-87
2022/10/06 03:08:31;;;;;;;8.50;2.37;;;12.20;99.90;;;;;;5113060;27;20291;-87
2022/10/06 03:11:02;;;;;;;13.43;4.00;;;12.20;99.90;;;;;;5108446;28;20222;-87
2022/10/06 03:13:30;;;;;;;15.80;3.20;;;12.30;99.90;;;;;;5112924;28;20222;-85
2022/10/06 03:15:57;;;;;;;9.83;2.57;;;12.20;99.90;;;;;;5112345;28;20202;-88
2022/10/06 03:18:26;;;;;;;12.37;2.50;;;12.30;99.90;;;;;;5113803;28;20217;-86
2022/10/06 03:20:59;;;;;;;12.10;3.30;;;12.20;99.90;;;;;;5113311;28;20519;-87
2022/10/06 03:23:27;;;;;;;10.67;2.03;;;12.20;99.90;;;;;;5114222;28;20214;-88
2022/10/06 03:25:58;;;;;;;12.50;2.53;;;12.20;99.90;;;;;;5114349;28;20203;-87
2022/10/06 03:28:25;;;;;;;8.93;2.13;;;12.20;99.90;;;;;;5114100;28;20207;-86
2022/10/06 03:30:52;;;;;;;15.50;2.97;;;12.20;99.90;;;;;;5109788;28;20228;-86
2022/10/06 03:33:22;;;;;;;11.60;2.80;;;12.20;99.90;;;;;;5114186;28;20294;-90
2022/10/06 03:35:59;;;;;;;11.70;3.07;;;12.10;99.90;;;;;;5113813;28;20217;-87
2022/10/06 03:38:32;;;;;;;15.47;3.57;;;12.20;99.90;;;;;;5114247;28;20207;-90
2022/10/06 03:41:12;;;;;;;15.80;2.33;;;12.10;99.90;;;;;;5114289;28;20229;-88
2022/10/06 03:43:42;;;;;;;12.80;2.30;;;12.10;99.90;;;;;;5113682;28;20195;-86
2022/10/06 03:46:11;;;;;;;15.70;3.20;;;12.10;99.90;;;;;;5114441;28;20205;-90
2022/10/06 03:48:44;;;;;;;14.03;3.93;;;12.10;99.90;;;;;;5114832;28;20198;-88
2022/10/06 03:51:17;;;;;;;15.50;2.80;;;12.00;99.90;;;;;;5114437;28;20207;-91
2022/10/06 03:53:46;;;;;;;10.17;2.53;;;11.90;99.90;;;;;;5114311;27;20203;-87
2022/10/06 03:56:20;;;;;;;16.33;3.20;;;12.00;99.90;;;;;;5113400;28;20198;-87
2022/10/06 03:58:51;;;;;;;12.00;2.13;;;12.00;99.90;;;;;;5113644;28;20687;-86
2022/10/06 04:01:20;;;;;;;13.33;2.83;;;12.10;99.90;;;;;;5113966;28;20680;-85
2022/10/06 04:03:47;;;;;;;10.83;2.40;;;12.10;99.90;;;;;;5115048;28;20209;-86
2022/10/06 04:06:17;;;;;;;14.53;3.13;;;12.00;99.90;;;;;;5117526;28;20202;-86
2022/10/06 04:08:51;;;;;;;12.87;2.67;;;11.90;99.90;;;;;;5117413;28;20203;-89
2022/10/06 04:11:21;;;;;;;16.35;3.45;;;12.00;99.90;;;;;;5116639;28;20761;-90
2022/10/06 04:13:52;;;;;;;12.70;2.93;;;12.00;99.90;;;;;;5117535;28;20203;-88
2022/10/06 04:16:23;;;;;;;16.90;2.73;;;12.00;99.90;;;;;;5117502;28;20198;-86
2022/10/06 04:18:53;;;;;;;12.73;2.57;;;12.00;99.90;;;;;;5116885;28;20191;-85
2022/10/06 04:21:30;;;;;;;10.90;2.73;;;11.90;99.90;;;;;;5117296;28;20235;-86
2022/10/06 04:24:00;;;;;;;9.50;2.60;;;11.90;99.90;;;;;;5116954;28;20202;-86
2022/10/06 04:26:30;;;;;;;17.53;2.83;;;11.80;99.90;;;;;;5117106;28;20198;-89
2022/10/06 04:29:03;;;;;;;12.70;2.20;;;11.80;99.90;;;;;;5116679;28;20213;-88
2022/10/06 04:31:35;;;;;;;11.27;2.40;;;11.80;99.90;;;;;;5117145;27;20214;-85
2022/10/06 04:34:03;;;;;;;11.83;2.60;;;11.80;99.90;;;;;;5117026;28;20240;-86
2022/10/06 04:36:37;;;;;;;19.03;3.80;;;11.70;99.90;;;;;;5115869;28;20506;-85
2022/10/06 04:39:05;;;;;;;13.20;3.20;;;11.90;99.90;;;;;;5117733;28;20611;-85
2022/10/06 04:41:40;;;;;;;10.73;2.40;;;11.90;99.90;;;;;;5116624;28;20227;-84
2022/10/06 04:44:09;;;;;;;17.17;2.97;;;11.90;99.90;;;;;;5117256;28;20217;-85
2022/10/06 04:46:37;;;;;;;9.20;2.23;;;11.90;99.90;;;;;;5116721;27;20214;-85
2022/10/06 04:49:04;;;;;;;8.93;2.37;;;11.80;99.90;;;;;;5116763;28;20205;-86
2022/10/06 04:51:34;;;;;;;13.67;2.97;;;11.80;99.90;;;;;;5117243;28;20217;-86
2022/10/06 04:54:01;;;;;;;9.57;2.67;;;11.80;99.90;;;;;;5116406;28;20199;-85
2022/10/06 04:56:30;;;;;;;14.13;2.90;;;11.70;99.90;;;;;;5116616;28;20195;-88
2022/10/06 04:58:58;;;;;;;13.80;2.67;;;11.80;99.90;;;;;;5117117;28;20202;-88
2022/10/06 05:01:27;;;;;;;16.60;2.93;;;11.60;99.90;;;;;;5115888;28;20222;-86
2022/10/06 05:03:58;;;;;;;18.23;2.77;;;11.60;99.90;;;;;;5116083;28;20199;-85
2022/10/06 05:06:26;;;;;;;11.83;2.80;;;11.60;99.90;;;;;;5115786;28;20202;-86
2022/10/06 05:08:57;;;;;;;13.70;2.77;;;11.60;99.90;;;;;;5116159;28;20554;-86
2022/10/06 05:11:25;;;;;;;10.63;2.80;;;11.60;99.90;;;;;;5116733;28;20211;-86
2022/10/06 05:13:56;;;;;;;18.73;2.77;;;11.60;99.90;;;;;;5116334;28;20201;-85
2022/10/06 05:16:25;;;;;;;17.57;3.73;;;11.60;99.90;;;;;;5115912;28;20202;-88
2022/10/06 05:18:52;;;;;;;12.30;2.63;;;11.60;99.90;;;;;;5116459;27;20238;-85
2022/10/06 05:21:26;;;;;;;13.30;2.97;;;11.50;99.90;;;;;;5115911;28;20214;-85
2022/10/06 05:23:57;;;;;;;10.33;3.37;;;11.50;99.90;;;;;;5115939;28;20205;-86
2022/10/06 05:26:31;;;;;;;14.85;3.75;;;11.40;99.90;;;;;;5115034;28;20907;-85
2022/10/06 05:29:04;;;;;;;15.40;3.13;;;11.50;99.90;;;;;;5116019;28;20195;-85
2022/10/06 05:31:37;;;;;;;14.57;3.20;;;11.50;99.90;;;;;;5116101;28;20195;-86
2022/10/06 05:34:05;;;;;;;12.97;2.60;;;11.40;99.90;;;;;;5115899;28;20291;-86
2022/10/06 05:36:33;;;;;;;16.17;3.10;;;11.40;99.90;;;;;;5116288;28;20198;-87
2022/10/06 05:39:07;;;;;;;12.43;2.57;;;11.40;99.90;;;;;;5115249;28;20213;-87
2022/10/06 05:41:40;;;;;;;15.07;2.63;;;11.30;99.90;;;;;;5115831;28;20580;-89
2022/10/06 05:44:13;;;;;;;14.37;2.60;;;11.30;99.90;;;;;;5116001;28;20211;-86
2022/10/06 05:46:40;;;;;;;16.23;3.17;;;11.10;99.90;;;;;;5116019;28;20206;-87
2022/10/06 05:49:09;;;;;;;11.77;2.60;;;11.10;99.90;;;;;;5115479;28;20603;-87
2022/10/06 05:51:37;;;;;;;12.00;2.90;;;11.00;99.90;;;;;;5115806;28;20226;-87
2022/10/06 05:54:04;;;;;;;12.77;3.00;;;10.90;99.90;;;;;;5115334;28;20195;-87
2022/10/06 05:56:38;;;;;;;15.37;2.50;;;10.80;99.90;;;;;;5115897;28;20210;-86
2022/10/06 05:59:11;;;;;;;7.73;2.50;;;10.80;99.90;;;;;;5115544;27;20225;-87
2022/10/06 06:01:39;;;;;;;14.80;2.90;;;10.80;99.90;;;;;;5115287;28;20228;-86
2022/10/06 06:04:09;;;;;;;15.73;4.00;;;10.70;99.90;;;;;;5114950;28;20216;-87
2022/10/06 06:06:38;;;;;;;12.20;3.07;;;10.70;99.90;;;;;;5115223;28;20193;-86
2022/10/06 06:09:09;;;;;;;17.97;3.53;;;10.60;99.90;;;;;;5115380;28;20203;-87
2022/10/06 06:11:38;;;;;;;11.60;2.57;;;10.60;99.90;;;;;;5115024;28;20189;-86
2022/10/06 06:14:09;;;;;;;13.13;2.83;;;10.70;99.90;;;;;;5114724;28;20209;-84
2022/10/06 06:16:37;;;;;;;12.63;3.00;;;10.80;99.90;;;;;;5111815;28;20197;-86
2022/10/06 06:19:05;;;;;;;15.43;4.00;;;10.80;99.90;;;;;;5114354;28;20213;-88
2022/10/06 06:21:33;;;;;;;19.13;3.67;;;10.70;99.90;;;;;;5114319;27;20227;-86
2022/10/06 06:23:59;;;;;;;16.77;3.97;;;10.70;99.90;;;;;;5113690;28;20200;-86
2022/10/06 06:26:28;;;;;;;16.07;3.57;;;10.80;99.90;;;;;;5113804;28;20191;-88
2022/10/06 06:29:02;;;;;;;8.93;2.53;;;10.80;99.90;;;;;;5114002;28;20626;-87
2022/10/06 06:31:31;;;;;;;14.97;2.67;;;10.70;99.90;;;;;;5113931;28;20206;-88
2022/10/06 06:34:00;;;;;;;14.30;3.10;;;10.70;99.90;;;;;;5111518;28;20206;-87
2022/10/06 06:36:30;;;;;;;11.40;2.13;;;10.60;99.90;;;;;;5114480;28;20544;-86
2022/10/06 06:38:58;;;;;;;14.60;2.93;;;10.60;99.90;;;;;;5111396;28;20213;-87
2022/10/06 06:41:28;;;;;;;15.57;3.75;;;10.60;99.90;;;;;;5112805;28;20432;-92
2022/10/06 06:43:58;;;;;;;12.80;2.77;;;10.80;99.90;;;;;;5113922;28;20207;-85
2022/10/06 06:46:30;;;;;;;19.13;3.77;;;11.00;99.90;;;;;;5114394;28;20285;-85
2022/10/06 06:49:03;;;;;;;13.70;3.23;;;11.00;99.90;;;;;;5114422;28;20198;-85
2022/10/06 06:51:29;;;;;;;12.60;2.80;;;10.90;99.90;;;;;;5114068;28;20206;-87
2022/10/06 06:53:58;;;;;;;14.80;2.87;;;10.90;99.90;;;;;;5114255;28;20210;-86
2022/10/06 06:56:25;;;;;;;15.03;3.20;;;11.00;99.90;;;;;;5114358;28;20203;-86
2022/10/06 06:58:51;;;;;;;9.70;2.60;;;11.00;99.90;;;;;;5113992;28;20199;-86
2022/10/06 07:01:21;;;;;;;13.53;3.90;;;11.00;99.90;;;;;;5114363;28;20194;-86
2022/10/06 07:03:53;;;;;;;17.17;3.17;;;11.00;99.90;;;;;;5114401;28;20205;-85
2022/10/06 07:06:20;;;;;;;15.60;4.18;;;11.10;99.90;;;;;;5112906;28;20451;-86
2022/10/06 07:08:48;;;;;;;18.20;3.43;;;11.20;99.90;;;;;;5114507;28;20207;-85
2022/10/06 07:11:17;;;;;;;18.87;3.13;;;11.30;99.90;;;;;;5115396;28;20195;-86
2022/10/06 07:13:46;;;;;;;16.40;2.93;;;11.40;99.90;;;;;;5115558;28;20209;-86
2022/10/06 07:27:12;;;;;;;11.37;2.77;;;11.60;99.90;;;;;;5113614;28;20235;-86
2022/10/06 07:29:40;;;;;;;17.40;3.20;;;11.80;99.90;;;;;;5113817;28;20203;-87
2022/10/06 07:32:07;;;;;;;12.87;3.00;;;11.70;99.90;;;;;;5114714;28;20198;-85
2022/10/06 07:34:35;;;;;;;14.50;2.83;;;11.90;99.90;;;;;;5114154;28;20618;-86
2022/10/06 07:37:02;;;;;;;14.17;2.67;;;11.90;99.90;;;;;;5117712;28;20226;-86
2022/10/06 07:39:30;;;;;;;17.57;2.60;;;11.90;99.90;;;;;;5117264;28;20215;-85
2022/10/06 07:41:57;;;;;;;8.27;2.13;;;12.00;99.90;;;;;;5117929;28;20222;-88
2022/10/06 07:44:24;;;;;;;10.30;2.27;;;12.00;99.90;;;;;;5118253;28;20664;-85
2022/10/06 07:46:51;;;;;;;10.20;2.13;;;12.10;99.90;;;;;;5118788;28;20204;-86
2022/10/06 07:49:18;;;;;;;10.47;2.57;;;12.10;99.90;;;;;;5118389;28;20203;-85
2022/10/06 07:51:46;;;;;;;10.47;2.53;;;12.20;99.90;;;;;;5118253;28;20199;-85
2022/10/06 07:54:13;;;;;;;11.90;2.90;;;12.20;99.90;;;;;;5118274;28;20203;-86
2022/10/06 07:56:40;;;;;;;15.82;3.15;;;12.30;99.90;;;;;;5117598;28;20439;-86
2022/10/06 07:59:06;;;;;;;12.33;2.60;;;12.40;99.90;;;;;;5117930;28;20203;-86
2022/10/06 08:01:33;;;;;;;13.70;2.87;;;12.50;99.90;;;;;;5119269;28;20227;-85
2022/10/06 08:04:01;;;;;;;9.63;2.60;;;12.60;99.90;;;;;;5117947;28;20207;-86
2022/10/06 08:06:28;;;;;;;9.80;2.50;;;12.70;99.90;;;;;;5119556;28;20188;-88
2022/10/06 08:08:56;;;;;;;14.97;4.40;;;12.80;99.90;;;;;;5118024;28;20202;-87
2022/10/06 08:11:23;;;;;;;7.27;1.90;;;12.80;99.90;;;;;;5118494;28;20196;-86
2022/10/06 08:13:50;;;;;;;11.80;2.37;;;12.80;99.90;;;;;;5118356;28;20211;-89
2022/10/06 08:16:19;;;;;;;12.13;2.47;;;13.00;99.90;;;;;;5117945;28;20232;-85
2022/10/06 08:18:49;;;;;;;11.83;2.53;;;13.10;99.90;;;;;;5117819;28;20298;-85
2022/10/06 08:21:18;;;;;;;12.30;2.30;;;13.10;99.90;;;;;;5118561;28;20208;-89
2022/10/06 08:23:47;;;;;;;14.80;2.57;;;13.20;99.90;;;;;;5117530;28;20231;-86
2022/10/06 08:26:17;;;;;;;12.03;2.40;;;13.20;99.90;;;;;;5118592;28;20188;-87
2022/10/06 08:28:46;;;;;;;7.43;2.20;;;13.30;99.90;;;;;;5118572;28;20207;-88
2022/10/06 08:31:14;;;;;;;10.83;2.90;;;13.40;99.90;;;;;;5119158;28;20185;-86
2022/10/06 08:33:41;;;;;;;9.60;2.50;;;13.40;99.90;;;;;;5122512;28;20224;-88
2022/10/06 08:36:10;;;;;;;15.00;2.37;;;13.40;99.90;;;;;;5119730;27;20205;-89
2022/10/06 08:38:38;;;;;;;9.17;2.20;;;13.50;99.90;;;;;;5125446;28;20209;-85
2022/10/06 08:41:17;;;;;;;9.83;1.90;;;13.60;99.90;;;;;;5116992;28;20298;-88
2022/10/06 08:43:46;;;;;;;9.33;2.70;;;13.60;99.90;;;;;;5124848;27;20226;-88
2022/10/06 08:46:15;;;;;;;8.63;2.20;;;13.60;99.90;;;;;;5117269;28;20200;-89
2022/10/06 08:48:42;;;;;;;12.70;2.47;;;13.80;99.90;;;;;;5117613;28;20204;-84
2022/10/06 08:51:22;;;;;;;12.80;2.73;;;13.90;99.90;;;;;;5117354;28;20371;-90
2022/10/06 08:53:58;;;;;;;8.67;2.13;;;13.90;99.90;;;;;;5126602;28;20208;-87
2022/10/06 08:56:29;;;;;;;8.23;2.00;;;14.00;99.90;;;;;;5116511;28;20203;-86
2022/10/06 08:58:58;;;;;;;11.03;2.00;;;14.10;99.90;;;;;;5125317;28;20192;-86
2022/10/06 09:01:27;;;;;;;8.27;1.87;;;14.10;99.90;;;;;;5116745;28;20651;-85
2022/10/06 09:04:00;;;;;;;8.37;1.83;;;14.10;99.90;;;;;;5116548;28;20598;-84
2022/10/06 09:06:40;;;;;;;8.93;2.03;;;14.20;99.90;;;;;;5123007;28;20260;-87
2022/10/06 09:09:21;;;;;;;5.83;1.70;;;14.30;99.90;;;;;;5118154;28;20204;-90
2022/10/06 09:12:00;;;;;;;5.63;1.80;;;14.30;99.90;;;;;;5117313;28;20196;-90
2022/10/06 09:14:35;;;;;;;6.67;1.83;;;14.50;99.90;;;;;;5117098;28;20216;-88
2022/10/06 09:17:06;;;;;;;7.23;1.70;;;14.50;99.90;;;;;;5117105;28;20249;-88
2022/10/06 09:19:39;;;;;;;9.77;2.10;;;14.60;99.90;;;;;;5117976;28;20200;-90
2022/10/06 09:22:13;;;;;;;6.40;2.17;;;14.60;99.90;;;;;;5116689;28;20197;-90
2022/10/06 09:24:41;;;;;;;9.97;2.13;;;14.70;99.90;;;;;;5117319;28;20197;-90
2022/10/06 09:27:18;;;;;;;4.33;1.87;;;14.70;99.90;;;;;;5116830;28;20189;-89
2022/10/06 09:29:48;;;;;;;8.60;2.40;;;14.70;99.90;;;;;;5122152;28;20199;-90
2022/10/06 09:32:17;;;;;;;8.40;1.93;;;14.60;99.90;;;;;;5120241;28;20201;-86
2022/10/06 09:34:49;;;;;;;6.80;1.50;;;14.70;99.90;;;;;;5123375;28;20205;-86
2022/10/06 09:37:16;;;;;;;6.93;2.10;;;14.80;99.90;;;;;;5123018;28;20659;-86
2022/10/06 09:39:44;;;;;;;11.10;2.20;;;14.90;99.90;;;;;;5119319;28;20200;-86
2022/10/06 09:42:21;;;;;;;7.53;1.97;;;15.10;99.90;;;;;;5118394;28;20196;-87
2022/10/06 09:45:01;;;;;;;8.57;1.87;;;15.00;99.90;;;;;;5123508;28;20198;-85
2022/10/06 09:47:44;;;;;;;6.88;2.05;;;15.10;99.90;;;;;;5126198;28;20436;-90
2022/10/06 09:50:23;;;;;;;5.23;1.90;;;15.20;99.90;;;;;;5127321;28;20246;-90
2022/10/06 09:53:20;;;;;;;11.33;2.30;;;15.30;99.90;;;;;;5129996;28;20228;-89
2022/10/06 09:55:53;;;;;;;8.63;1.87;;;15.30;99.90;;;;;;5083766;27;20683;-87
2022/10/06 09:58:30;;;;;;;8.40;2.07;;;15.30;99.90;;;;;;5120259;28;20223;-88
2022/10/06 10:01:02;;;;;;;8.87;2.00;;;15.30;99.90;;;;;;5122314;28;20201;-89
2022/10/06 10:03:50;;;;;;;5.77;1.60;;;15.30;99.90;;;;;;5120330;28;20253;-88
2022/10/06 10:06:26;;;;;;;10.63;1.97;;;15.20;99.90;;;;;;5121284;28;20272;-83
2022/10/06 10:09:13;;;;;;;8.20;1.60;;;15.20;99.90;;;;;;5123042;28;20205;-84
2022/10/06 10:14:25;;;;;;;6.33;1.93;;;15.20;99.90;;;;;;5117143;27;20235;-86
2022/10/06 10:16:54;;;;;;;9.67;2.20;;;15.40;99.90;;;;;;5120336;28;20258;-84
2022/10/06 10:19:26;;;;;;;7.03;1.93;;;15.40;99.90;;;;;;5127430;27;20212;-86
2022/10/06 10:21:56;;;;;;;4.33;1.70;;;15.40;99.90;;;;;;5122946;28;20217;-88
2022/10/06 10:24:37;;;;;;;7.97;1.97;;;15.30;99.90;;;;;;5124798;28;20224;-86
2022/10/06 10:27:13;;;;;;;10.53;2.23;;;15.40;99.90;;;;;;5119661;28;20201;-87
2022/10/06 10:30:00;;;;;;;6.60;1.53;;;15.40;99.90;;;;;;5131963;28;20210;-84
2022/10/06 10:32:45;;;;;;;5.63;1.50;;;15.50;99.90;;;;;;5127736;28;20213;-84
2022/10/06 10:35:20;;;;;;;5.50;1.77;;;15.50;99.90;;;;;;5132457;28;20292;-85
2022/10/06 10:37:52;;;;;;;9.10;1.67;;;15.50;99.90;;;;;;5131370;28;20215;-84
2022/10/06 10:40:29;;;;;;;8.73;1.63;;;15.50;99.90;;;;;;5132956;28;20269;-85
2022/10/06 10:43:21;;;;;;;10.17;1.90;;;15.70;99.90;;;;;;5133743;28;20237;-83
2022/10/06 10:45:54;;;;;;;4.20;1.43;;;15.70;99.90;;;;;;5128957;28;20202;-85
2022/10/06 10:48:27;;;;;;;4.20;1.80;;;15.70;99.90;;;;;;5133832;28;20195;-85
2022/10/06 10:51:02;;;;;;;8.17;1.73;;;15.80;99.90;;;;;;5130219;28;20192;-86
2022/10/06 10:53:43;;;;;;;5.97;1.67;;;15.90;99.90;;;;;;5128559;28;20623;-84
2022/10/06 10:56:13;;;;;;;4.83;1.50;;;15.90;99.90;;;;;;5123833;28;20213;-83
2022/10/06 10:58:42;;;;;;;4.77;1.47;;;16.00;99.90;;;;;;5113107;28;20205;-82
2022/10/06 11:01:25;;;;;;;7.93;2.03;;;16.00;99.90;;;;;;5113063;28;20425;-80
2022/10/06 11:03:56;;;;;;;5.67;2.00;;;16.20;99.90;;;;;;5114431;28;20238;-81
2022/10/06 11:06:42;;;;;;;4.93;1.73;;;16.20;99.90;;;;;;5113085;28;20200;-84
2022/10/06 11:09:14;;;;;;;6.87;1.60;;;16.30;99.90;;;;;;5116096;27;20210;-81
2022/10/06 11:11:54;;;;;;;7.93;1.80;;;16.20;99.90;;;;;;5114503;27;20212;-82
2022/10/06 11:14:34;;;;;;;5.57;1.70;;;16.20;99.90;;;;;;5111739;28;20203;-81
2022/10/06 11:17:15;;;;;;;7.43;1.70;;;16.10;99.90;;;;;;5115463;28;20213;-80
2022/10/06 11:19:51;;;;;;;4.20;1.23;;;16.20;99.90;;;;;;5113097;28;20245;-82
2022/10/06 11:22:26;;;;;;;5.57;1.40;;;16.20;99.90;;;;;;5112817;28;20199;-81
2022/10/06 11:25:03;;;;;;;3.90;1.00;;;16.20;99.90;;;;;;5113618;28;20208;-82
2022/10/06 11:27:39;;;;;;;4.40;1.27;;;16.20;99.90;;;;;;5113397;28;20217;-82
2022/10/06 11:30:14;;;;;;;4.20;1.23;;;16.30;99.90;;;;;;5113225;28;20685;-81
2022/10/06 11:32:52;;;;;;;4.20;1.20;;;16.30;99.90;;;;;;5113581;28;20217;-81
2022/10/06 11:35:22;;;;;;;4.77;1.23;;;16.30;99.90;;;;;;5113573;28;20200;-82
2022/10/06 11:37:53;;;;;;;6.83;1.60;;;16.30;99.90;;;;;;5113157;28;20750;-82
2022/10/06 11:40:39;;;;;;;6.17;1.20;;;16.40;99.90;;;;;;5113259;28;20199;-82
2022/10/06 11:43:16;;;;;;;1.67;0.97;;;16.40;99.90;;;;;;5113253;28;20231;-81
2022/10/06 11:45:51;;;;;;;4.60;1.30;;;16.50;99.90;;;;;;5112438;28;20200;-81
2022/10/06 11:48:26;;;;;;;5.20;1.57;;;16.50;99.90;;;;;;5113297;28;20208;-82
2022/10/06 11:50:55;;;;;;;4.57;1.30;;;16.60;99.90;;;;;;5113320;28;20200;-82
2022/10/06 11:53:38;;;;;;;5.00;1.27;;;16.70;99.90;;;;;;5113086;28;20197;-82
2022/10/06 11:56:44;;;;;;;5.83;1.43;;;16.70;99.90;;;;;;5113189;28;20204;-82
2022/10/06 11:59:30;;;;;;;6.27;1.50;;;16.70;99.90;;;;;;5112074;28;20209;-81
2022/10/06 12:01:58;;;;;;;6.33;1.73;;;16.80;99.90;;;;;;5109800;28;20224;-81
2022/10/06 12:04:27;;;;;;;7.10;1.57;;;16.70;99.90;;;;;;5112669;28;20212;-83
2022/10/06 12:07:02;;;;;;;4.83;1.33;;;16.80;99.90;;;;;;5113160;28;20215;-83
2022/10/06 12:09:44;;;;;;;4.43;1.60;;;16.90;99.90;;;;;;5112986;28;20199;-84
2022/10/06 12:12:55;;;;;;;3.77;1.30;;;16.70;99.90;;;;;;5112986;28;20222;-82
2022/10/06 12:15:43;;;;;;;8.00;1.70;;;16.70;99.90;;;;;;5111559;28;20208;-80
2022/10/06 12:18:33;;;;;;;6.20;1.70;;;16.80;99.90;;;;;;5112666;28;20206;-82
2022/10/06 12:21:19;;;;;;;5.97;1.87;;;17.00;99.90;;;;;;5112746;28;20200;-81
2022/10/06 12:24:02;;;;;;;7.97;2.67;;;17.20;99.90;;;;;;5112358;28;20692;-83
2022/10/06 12:26:37;;;;;;;3.67;1.97;;;17.10;99.90;;;;;;5116612;28;20204;-83
2022/10/06 12:29:27;;;;;;;6.80;2.03;;;17.00;99.90;;;;;;5117625;28;20202;-85
2022/10/06 12:32:02;;;;;;;2.53;1.30;;;17.10;99.90;;;;;;5119099;28;20205;-83
2022/10/06 12:34:55;;;;;;;8.95;2.20;;;17.10;99.90;;;;;;5118186;28;20472;-84
2022/10/06 12:37:41;;;;;;;6.90;1.63;;;17.30;99.90;;;;;;5117933;28;20204;-84
2022/10/06 12:40:46;;;;;;;5.73;1.40;;;17.10;99.90;;;;;;5117433;28;20202;-87
2022/10/06 12:43:34;;;;;;;9.60;1.90;;;17.10;99.90;;;;;;5117348;28;20213;-85
2022/10/06 12:46:06;;;;;;;7.43;1.67;;;17.20;99.90;;;;;;5118767;28;20236;-86
2022/10/06 12:48:48;;;;;;;7.10;1.60;;;17.10;99.90;;;;;;5117499;28;20205;-83
2022/10/06 12:51:29;;;;;;;4.97;1.40;;;17.00;99.90;;;;;;5117609;28;20205;-84
2022/10/06 12:54:07;;;;;;;8.20;2.03;;;17.10;99.90;;;;;;5116910;28;20425;-88
2022/10/06 12:56:37;;;;;;;7.17;2.13;;;17.10;99.90;;;;;;5116253;28;20541;-85
2022/10/06 12:59:24;;;;;;;5.90;1.80;;;17.30;99.90;;;;;;5116178;28;20288;-85
2022/10/06 13:01:54;;;;;;;9.87;1.70;;;17.40;99.90;;;;;;5114939;28;20237;-81
2022/10/06 13:04:34;;;;;;;6.27;2.10;;;17.50;99.90;;;;;;5115632;28;20246;-84
2022/10/06 13:07:09;;;;;;;8.70;1.50;;;17.60;99.90;;;;;;5116075;28;20207;-90
2022/10/06 13:09:37;;;;;;;5.30;1.50;;;17.60;99.90;;;;;;5123430;27;20201;-82
2022/10/06 13:12:21;;;;;;;5.33;1.87;;;17.60;99.90;;;;;;5123803;27;20208;-86
2022/10/06 13:14:48;;;;;;;7.53;1.95;;;17.70;99.90;;;;;;5117208;28;20437;-89
2022/10/06 13:17:15;;;;;;;10.53;1.90;;;17.50;99.90;;;;;;5117528;28;20510;-91
2022/10/06 13:19:43;;;;;;;5.80;1.70;;;17.50;99.90;;;;;;5117217;28;20197;-88